KYIP/YIP METAR and TAF weather

Enter ICAO airport designator
Station Type Date Time Source
KYIP METAR 2019/10/15 08:53 UTC NOAA

KYIP 150853Z 00000KT 10SM 01/M01 A3012 RMK AO2 SLP200 T00061011 50001 $


Station Type Date Time Source
KYIP Decoded METAR 2019/10/15 08:53 UTC NOAA

WILLOW RUN AIRPORT, MI, United States (KYIP) 42-14N 083-32W 215M
Oct 15, 2019 - 04:53 AM EDT / 2019.10.15 0853 UTC
Wind: Calm:0
Visibility: 10 mile(s):0
Temperature: 33.1 F (0.6 C)
Dew Point: 30.0 F (-1.1 C)
Relative Humidity: 88%
Pressure (altimeter): 30.12 in. Hg (1019 hPa)
Pressure tendency: 0.00 inches (0.1 hPa) higher than three hours ago
ob: KYIP 150853Z 00000KT 10SM 01/M01 A3012 RMK AO2 SLP200 T00061011 50001
cycle: 9

Station Type Date Time Source
KYIP TAF 2019/10/15 06:22 UTC NOAA

TAF KYIP 150520Z 1506/1606 VRB03KT P6SM SCT250
FM151500 17009KT P6SM BKN150
FM151800 18010KT P6SM OVC100
FM152100 17010KT P6SM OVC050
FM160100 20007KT 5SM -SHRA OVC010

Example: see airport list